Time;durP1;ratioP1;P1;durP2;ratioP2;P2;SDS_P1;SDS_P2;PMS_P1;PMS_P2;Temp;Humidity;BMP_temperature;BMP_pressure;BME280_temperature;BME280_humidity;BME280_pressure;Samples;Min_cycle;Max_cycle;Signal;HPM_P1;HPM_P2
2021/03/28 00:00:53;;;;;;;11.70;6.90;;;;;;;6.13;72.98;101253.55;100576;1152;77318;-59
2021/03/28 00:03:00;;;;;;;;;;;;;;;6.07;73.37;101246.08;100609;1159;61625;-64
2021/03/28 00:05:27;;;;;;;12.40;7.30;;;;;;;6.03;72.98;101250.87;100643;1152;82895;-64
2021/03/28 00:07:45;;;;;;;12.47;8.10;;;;;;;6.04;73.05;101246.36;100605;1159;72339;-64
2021/03/28 00:09:56;;;;;;;10.30;6.43;;;;;;;6.03;72.90;101261.59;100563;1152;83346;-65
2021/03/28 00:12:13;;;;;;;9.80;6.13;;;;;;;6.03;72.99;101261.59;100606;1152;77475;-65
2021/03/28 00:14:36;;;;;;;11.40;6.93;;;;;;;6.03;72.79;101266.96;100597;1152;61809;-64
2021/03/28 00:16:48;;;;;;;12.83;6.90;;;;;;;5.94;72.53;101262.42;100621;1159;82835;-60
2021/03/28 00:19:04;;;;;;;11.60;6.63;;;;;;;5.91;72.49;101268.05;100599;1159;72289;-60
2021/03/28 00:21:16;;;;;;;17.53;7.13;;;;;;;5.84;72.46;101269.58;100582;1152;85117;-61
2021/03/28 00:23:26;;;;;;;12.33;7.03;;;;;;;5.79;72.51;101270.00;100396;1154;77506;-60
2021/03/28 00:25:42;;;;;;;10.03;6.37;;;;;;;5.73;72.57;101264.33;100559;1154;62140;-60
2021/03/28 00:27:54;;;;;;;15.27;7.97;;;;;;;5.70;72.19;101273.48;100642;1152;82214;-60
2021/03/28 00:30:06;;;;;;;7.63;5.37;;;;;;;5.56;72.09;101278.37;100597;1152;70900;-60
2021/03/28 00:32:21;;;;;;;10.33;6.83;;;;;;;5.50;71.99;101278.91;100597;1152;84309;-59
2021/03/28 00:34:32;;;;;;;7.33;5.70;;;;;;;5.42;71.96;101276.05;100594;1153;78242;-59
2021/03/28 00:36:45;;;;;;;9.77;5.53;;;;;;;5.35;71.98;101268.58;100632;1153;61826;-62
2021/03/28 00:38:56;;;;;;;9.17;5.90;;;;;;;5.33;72.31;101272.34;100815;1152;82478;-60
2021/03/28 00:41:19;;;;;;;8.20;5.47;;;;;;;5.38;72.26;101275.50;100598;1159;71523;-60
2021/03/28 00:43:31;;;;;;;11.23;6.10;;;;;;;5.43;72.44;101280.44;100595;1152;84205;-64
2021/03/28 00:45:50;;;;;;;11.43;6.30;;;;;;;5.48;72.35;101281.73;100553;1152;78663;-65
2021/03/28 00:48:08;;;;;;;10.70;6.50;;;;;;;5.50;72.44;101282.44;100549;1152;61648;-60
2021/03/28 00:50:34;;;;;;;8.37;5.37;;;;;;;5.48;72.61;101271.02;100538;1159;81385;-60
2021/03/28 00:52:51;;;;;;;8.00;5.37;;;;;;;5.50;72.52;101266.36;100615;1152;71314;-64
2021/03/28 00:55:11;;;;;;;7.13;5.27;;;;;;;5.53;72.48;101267.92;100610;1152;83943;-64
2021/03/28 00:57:27;;;;;;;9.63;5.00;;;;;;;5.54;72.13;101275.84;100553;1152;77786;-60
2021/03/28 00:59:55;;;;;;;7.67;5.10;;;;;;;5.49;71.75;101266.51;100649;1152;61861;-60
2021/03/28 01:02:32;;;;;;;6.80;4.80;;;;;;;5.38;71.91;101270.96;100775;1152;82327;-60
2021/03/28 01:05:21;;;;;;;10.27;4.97;;;;;;;5.26;71.84;101266.70;100300;1152;72446;-59
2021/03/28 01:08:01;;;;;;;6.57;4.50;;;;;;;5.14;71.93;101264.22;100597;1152;83163;-60
2021/03/28 01:11:05;;;;;;;9.73;5.90;;;;;;;4.95;71.87;101261.44;100564;1153;78830;-60
2021/03/28 01:13:52;;;;;;;8.80;4.70;;;;;;;4.80;71.90;101255.59;100553;1152;62003;-64
2021/03/28 01:16:51;;;;;;;7.63;4.53;;;;;;;4.69;71.88;101266.37;100639;1152;82538;-64
2021/03/28 01:19:09;;;;;;;6.87;5.20;;;;;;;4.60;72.12;101272.48;100571;1152;71373;-64
2021/03/28 01:21:33;;;;;;;10.53;5.10;;;;;;;4.50;72.29;101268.91;100628;1153;83463;-64
2021/03/28 01:23:45;;;;;;;8.83;5.40;;;;;;;4.40;72.29;101275.98;100553;1152;76885;-60
2021/03/28 01:26:34;;;;;;;7.67;5.37;;;;;;;4.34;72.43;101271.99;100574;1153;61891;-59
2021/03/28 01:28:56;;;;;;;8.00;4.87;;;;;;;4.29;72.48;101273.35;100557;1152;83112;-64
2021/03/28 01:31:18;;;;;;;9.77;5.33;;;;;;;4.26;72.57;101278.98;100874;1152;72324;-64
2021/03/28 01:33:31;;;;;;;8.73;5.70;;;;;;;4.21;72.58;101278.49;100589;1152;84010;-60
2021/03/28 01:35:49;;;;;;;9.95;6.00;;;;;;;4.09;72.76;101281.20;100523;1153;78312;-58
2021/03/28 01:38:06;;;;;;;10.57;5.97;;;;;;;4.01;72.91;101275.64;100604;1152;61863;-58
2021/03/28 01:40:23;;;;;;;9.83;6.00;;;;;;;3.94;73.03;101279.80;100389;1159;82972;-58
2021/03/28 01:42:58;;;;;;;10.00;5.63;;;;;;;3.90;73.09;101282.86;100544;1159;71527;-58
2021/03/28 01:45:19;;;;;;;10.07;5.50;;;;;;;3.93;73.28;101287.92;100524;1153;84941;-58
2021/03/28 01:47:39;;;;;;;9.13;5.77;;;;;;;3.94;73.49;101284.30;100975;1152;78310;-59
2021/03/28 01:50:07;;;;;;;9.60;5.83;;;;;;;4.00;73.37;101284.66;100483;1153;61862;-58
2021/03/28 01:52:26;;;;;;;11.13;5.90;;;;;;;4.09;73.35;101293.75;100685;1152;82279;-59
2021/03/28 01:54:49;;;;;;;9.90;6.13;;;;;;;4.15;73.65;101295.89;100463;1153;72214;-59
2021/03/28 01:57:06;;;;;;;10.13;5.23;;;;;;;4.28;73.77;101293.92;100515;1153;84731;-64
2021/03/28 01:59:28;;;;;;;8.67;6.30;;;;;;;4.38;73.91;101296.67;100454;1152;78288;-63
2021/03/28 02:01:47;;;;;;;12.57;5.63;;;;;;;4.49;74.02;101307.33;100426;1152;61560;-59
2021/03/28 02:04:04;;;;;;;9.57;5.37;;;;;;;4.56;74.12;101295.15;100350;1159;82346;-59
2021/03/28 02:06:42;;;;;;;10.13;5.97;;;;;;;4.62;74.12;101294.61;100529;1152;70974;-59
2021/03/28 02:09:01;;;;;;;9.83;5.80;;;;;;;4.70;73.92;101301.02;100377;1153;84730;-64
2021/03/28 02:11:28;;;;;;;13.05;6.90;;;;;;;4.75;73.95;101303.32;100700;1152;77800;-64
2021/03/28 02:13:52;;;;;;;11.43;6.13;;;;;;;4.76;73.90;101300.50;100526;1153;61606;-59
2021/03/28 02:16:15;;;;;;;9.77;5.93;;;;;;;4.72;73.67;101298.23;100429;1159;82051;-64
2021/03/28 02:18:43;;;;;;;10.30;6.43;;;;;;;4.68;73.91;101300.30;100482;1152;72353;-64
2021/03/28 02:20:58;;;;;;;9.03;5.60;;;;;;;4.72;74.04;101307.08;100370;1153;84646;-63
2021/03/28 02:23:21;;;;;;;11.67;6.53;;;;;;;4.78;73.60;101306.56;100613;1152;77093;-59
2021/03/28 02:25:42;;;;;;;10.97;5.33;;;;;;;4.80;73.80;101305.59;100807;1152;61669;-59
2021/03/28 02:27:57;;;;;;;13.00;5.90;;;;;;;4.83;74.03;101306.20;100442;1160;82460;-64
2021/03/28 02:30:17;;;;;;;9.13;5.37;;;;;;;4.82;73.95;101308.98;100460;1159;71563;-64
2021/03/28 02:33:09;;;;;;;7.97;5.17;;;;;;;4.69;73.66;101309.19;100534;1154;84249;-59
2021/03/28 02:35:53;;;;;;;9.70;5.23;;;;;;;4.58;73.52;101311.91;100316;1152;79220;-59
2021/03/28 02:38:12;;;;;;;8.80;4.70;;;;;;;4.43;73.38;101310.50;100519;1153;61870;-64
2021/03/28 02:40:35;;;;;;;10.37;5.60;;;;;;;4.29;73.65;101316.14;100639;1152;82566;-64
2021/03/28 02:43:02;;;;;;;10.07;6.20;;;;;;;4.14;73.56;101311.11;100509;1153;72298;-59
2021/03/28 02:45:21;;;;;;;9.27;5.07;;;;;;;4.05;73.78;101314.52;100558;1153;84903;-59
2021/03/28 02:48:21;;;;;;;10.17;5.20;;;;;;;3.98;73.62;101324.00;100558;1152;77672;-59
2021/03/28 02:50:56;;;;;;;8.27;4.57;;;;;;;3.85;73.74;101323.30;100386;1153;61913;-59
2021/03/28 02:53:23;;;;;;;9.40;4.88;;;;;;;3.70;73.77;101324.55;100626;1152;81923;-64
2021/03/28 02:55:52;;;;;;;8.90;4.83;;;;;;;3.71;74.10;101331.58;100510;1159;71613;-63
2021/03/28 02:58:15;;;;;;;10.27;5.10;;;;;;;3.69;73.79;101330.00;100497;1152;84834;-59
2021/03/28 03:00:38;;;;;;;10.13;5.53;;;;;;;3.65;73.93;101339.25;100550;1153;78032;-59
2021/03/28 03:03:07;;;;;;;10.13;4.98;;;;;;;3.59;74.08;101332.57;100517;1152;61702;-59
2021/03/28 03:05:45;;;;;;;11.57;5.20;;;;;;;3.50;74.07;101335.96;100802;1152;83190;-59
2021/03/28 03:08:14;;;;;;;9.43;5.50;;;;;;;3.43;74.19;101337.42;100362;1153;71336;-59
2021/03/28 03:10:55;;;;;;;10.30;5.07;;;;;;;3.41;74.17;101342.88;100618;1152;84312;-59
2021/03/28 03:13:13;;;;;;;9.27;5.27;;;;;;;3.35;74.25;101351.36;100467;1152;77943;-59
2021/03/28 03:15:38;;;;;;;10.50;4.90;;;;;;;3.29;74.38;101353.67;100602;1152;61608;-59
2021/03/28 03:18:50;;;;;;;8.07;4.80;;;;;;;3.26;74.41;101364.59;100376;1159;82229;-59
2021/03/28 03:21:58;;;;;;;10.33;5.60;;;;;;;3.22;74.33;101360.45;100547;1159;71269;-59
2021/03/28 03:24:46;;;;;;;8.47;4.90;;;;;;;3.13;74.64;101356.66;100317;1154;83679;-64
2021/03/28 03:27:39;;;;;;;8.83;5.33;;;;;;;3.12;74.81;101362.13;100550;1152;77398;-60
2021/03/28 03:30:15;;;;;;;10.73;5.57;;;;;;;3.04;74.67;101353.87;100323;1153;61709;-59
2021/03/28 03:32:52;;;;;;;12.17;5.70;;;;;;;2.99;74.72;101355.05;100577;1159;81930;-60
2021/03/28 03:35:15;;;;;;;8.13;4.67;;;;;;;2.99;74.81;101365.73;100529;1152;70673;-60
2021/03/28 03:38:03;;;;;;;9.23;5.53;;;;;;;3.01;75.06;101372.78;100582;1153;84910;-59
2021/03/28 03:40:47;;;;;;;9.70;5.37;;;;;;;3.02;74.93;101387.84;100565;1152;76997;-59
2021/03/28 03:43:38;;;;;;;13.78;6.10;;;;;;;2.94;75.05;101389.25;100791;1153;61725;-64
2021/03/28 03:45:57;;;;;;;10.00;5.60;;;;;;;2.96;75.14;101392.68;100385;1159;81997;-65
2021/03/28 03:48:15;;;;;;;10.63;5.33;;;;;;;2.99;75.14;101391.59;100531;1159;71452;-60
2021/03/28 03:50:46;;;;;;;12.53;5.47;;;;;;;2.98;75.14;101389.88;100357;1152;83926;-60
2021/03/28 03:53:08;;;;;;;11.97;6.10;;;;;;;2.95;75.05;101406.98;100591;1152;77570;-60
2021/03/28 03:55:23;;;;;;;10.17;6.27;;;;;;;2.96;75.12;101414.03;100529;1152;61644;-60
2021/03/28 03:57:41;;;;;;;10.23;6.00;;;;;;;2.98;75.22;101417.43;100523;1159;82970;-64
2021/03/28 04:00:04;;;;;;;12.43;6.23;;;;;;;3.12;75.42;101416.38;100559;1159;71596;-64
2021/03/28 04:02:18;;;;;;;8.37;5.87;;;;;;;3.23;75.63;101413.73;100646;1153;84616;-60
2021/03/28 04:04:46;;;;;;;9.85;5.90;;;;;;;3.26;75.17;101412.66;100479;1153;78689;-60
2021/03/28 04:07:11;;;;;;;11.33;6.10;;;;;;;3.22;75.22;101424.52;100552;1152;61711;-65
2021/03/28 04:09:26;;;;;;;;;;;;;;;3.21;75.14;101425.51;100518;1159;82516;-65
2021/03/28 04:12:27;;;;;;;10.80;6.20;;;;;;;3.17;75.25;101442.72;100591;1152;71052;-64
2021/03/28 04:15:05;;;;;;;12.47;6.70;;;;;;;3.20;75.46;101438.00;100243;1152;84400;-64
2021/03/28 04:17:37;;;;;;;10.63;6.00;;;;;;;3.28;75.47;101440.08;100573;1152;77517;-60
2021/03/28 04:20:06;;;;;;;11.87;5.90;;;;;;;3.29;75.53;101442.65;100560;1153;61803;-60
2021/03/28 04:22:44;;;;;;;9.93;6.17;;;;;;;3.35;75.63;101442.16;100571;1152;82894;-60
2021/03/28 04:25:05;;;;;;;10.60;6.07;;;;;;;3.48;75.63;101444.75;100459;1159;71025;-60
2021/03/28 04:27:38;;;;;;;9.43;5.83;;;;;;;3.53;75.57;101447.91;100483;1153;83760;-66
2021/03/28 04:29:47;;;;;;;11.80;5.33;;;;;;;3.57;75.56;101444.05;100544;1153;78018;-66
2021/03/28 04:32:24;;;;;;;9.53;5.47;;;;;;;3.55;75.70;101454.84;100428;1153;61602;-60
2021/03/28 04:34:48;;;;;;;10.77;6.97;;;;;;;3.63;75.51;101456.05;100638;1152;82270;-60
2021/03/28 04:37:19;;;;;;;9.63;6.03;;;;;;;3.73;75.44;101462.40;100947;1152;71357;-65
2021/03/28 04:39:51;;;;;;;9.90;5.90;;;;;;;3.83;75.61;101469.58;100489;1152;84215;-66
2021/03/28 04:42:44;;;;;;;10.27;6.30;;;;;;;3.88;75.37;101462.05;100611;1152;76808;-60
2021/03/28 04:45:26;;;;;;;9.27;6.57;;;;;;;3.92;75.22;101474.20;100570;1152;61831;-60
2021/03/28 04:47:59;;;;;;;11.83;6.47;;;;;;;3.95;75.28;101468.63;100528;1159;82271;-60
2021/03/28 04:50:45;;;;;;;12.60;6.40;;;;;;;3.96;75.13;101464.96;100422;1159;71765;-60
2021/03/28 04:53:34;;;;;;;10.60;6.10;;;;;;;4.00;75.25;101473.60;100576;1152;84140;-59
2021/03/28 04:56:25;;;;;;;12.13;6.00;;;;;;;3.96;75.25;101475.66;100634;1152;78458;-58
2021/03/28 04:58:55;;;;;;;9.37;6.00;;;;;;;4.00;75.18;101471.78;100670;1153;61811;-59
2021/03/28 05:01:31;;;;;;;12.17;6.67;;;;;;;3.99;75.10;101475.41;100522;1159;82120;-60
2021/03/28 05:04:20;;;;;;;10.47;6.53;;;;;;;4.02;75.06;101472.50;100525;1159;71548;-59
2021/03/28 05:07:19;;;;;;;9.00;6.27;;;;;;;4.11;74.97;101474.45;100565;1152;83464;-62
2021/03/28 05:10:03;;;;;;;10.83;5.83;;;;;;;4.20;74.90;101474.70;100494;1152;79203;-60
2021/03/28 05:12:42;;;;;;;10.38;6.43;;;;;;;4.19;74.90;101476.52;100439;1153;61779;-65
2021/03/28 05:15:24;;;;;;;9.13;6.57;;;;;;;4.26;74.75;101488.41;100398;1159;81764;-65
2021/03/28 05:18:19;;;;;;;13.30;6.83;;;;;;;4.28;74.72;101486.48;100645;1152;70947;-65
2021/03/28 05:21:02;;;;;;;10.23;6.37;;;;;;;4.33;74.65;101492.31;100491;1152;84221;-64
2021/03/28 05:23:42;;;;;;;9.90;6.40;;;;;;;4.40;74.63;101496.19;100532;1152;78199;-63
2021/03/28 05:26:34;;;;;;;11.37;6.30;;;;;;;4.36;74.78;101499.24;100589;1152;61816;-65
2021/03/28 05:29:12;;;;;;;10.77;6.43;;;;;;;4.42;74.55;101504.11;100542;1159;82415;-59
2021/03/28 05:32:19;;;;;;;11.03;6.47;;;;;;;4.42;74.58;101499.58;100643;1152;71458;-60
2021/03/28 05:35:03;;;;;;;11.00;6.77;;;;;;;4.47;74.52;101504.59;100620;1153;83558;-65
2021/03/28 05:37:35;;;;;;;10.57;6.97;;;;;;;4.57;74.41;101510.89;100598;1152;77122;-60
2021/03/28 05:40:23;;;;;;;11.00;6.30;;;;;;;4.62;74.39;101514.89;100616;1152;61679;-62
2021/03/28 05:43:00;;;;;;;10.10;6.30;;;;;;;4.64;74.55;101520.97;100238;1152;81537;-61
2021/03/28 05:45:47;;;;;;;11.87;6.90;;;;;;;4.64;74.48;101522.81;100624;1152;71788;-59
2021/03/28 05:48:47;;;;;;;11.10;6.47;;;;;;;4.72;74.35;101523.87;100581;1152;85006;-59
2021/03/28 05:51:25;;;;;;;8.93;6.27;;;;;;;4.83;74.36;101522.17;100568;1152;77815;-60
2021/03/28 05:54:34;;;;;;;8.80;5.60;;;;;;;4.91;74.25;101527.74;100427;1154;61721;-60
2021/03/28 05:57:33;;;;;;;11.63;6.33;;;;;;;4.93;74.31;101526.64;100529;1159;82958;-64
2021/03/28 06:00:16;;;;;;;10.23;6.23;;;;;;;4.93;74.24;101526.64;100600;1152;71020;-65
2021/03/28 06:03:12;;;;;;;10.90;5.90;;;;;;;4.97;74.12;101530.75;100188;1155;84739;-65
2021/03/28 06:06:04;;;;;;;11.40;6.43;;;;;;;4.99;74.13;101531.50;100162;1153;77928;-65
2021/03/28 06:09:04;;;;;;;12.60;6.67;;;;;;;5.05;74.15;101539.03;100564;1152;61627;-65
2021/03/28 06:12:12;;;;;;;12.90;6.10;;;;;;;5.05;73.83;101544.39;100526;1159;83085;-65
2021/03/28 06:14:47;;;;;;;12.20;6.40;;;;;;;5.05;73.78;101540.86;100563;1159;70678;-58
2021/03/28 06:17:09;;;;;;;9.70;6.10;;;;;;;5.01;73.40;101540.25;100153;1155;83625;-63
2021/03/28 06:20:12;;;;;;;10.13;6.50;;;;;;;5.02;73.49;101546.46;100632;1152;77516;-64
2021/03/28 06:23:12;;;;;;;10.87;6.37;;;;;;;5.02;73.68;101549.14;100469;1152;61713;-61
2021/03/28 06:26:03;;;;;;;11.33;6.23;;;;;;;5.03;73.64;101551.68;100542;1153;81800;-60
2021/03/28 06:28:51;;;;;;;11.50;5.90;;;;;;;5.01;73.68;101556.31;100551;1152;71611;-60
2021/03/28 06:31:55;;;;;;;9.80;6.10;;;;;;;4.95;73.75;101561.31;100386;1153;84272;-60
2021/03/28 06:34:49;;;;;;;10.97;6.50;;;;;;;4.99;73.56;101563.63;100145;1155;77247;-67
2021/03/28 06:37:47;;;;;;;9.70;5.87;;;;;;;5.03;73.49;101570.42;100211;1155;61727;-59
2021/03/28 06:40:42;;;;;;;8.50;5.90;;;;;;;5.02;73.67;101571.42;100423;1159;84394;-60
2021/03/28 06:43:20;;;;;;;10.55;6.15;;;;;;;5.09;73.72;101577.97;100434;1158;71748;-60
2021/03/28 06:46:25;;;;;;;9.23;6.10;;;;;;;5.13;73.32;101576.75;100509;1153;83762;-59
2021/03/28 06:49:16;;;;;;;11.08;6.00;;;;;;;5.17;73.56;101571.97;100010;1156;77795;-60
2021/03/28 06:51:47;;;;;;;11.43;7.47;;;;;;;5.19;73.69;101573.54;100176;1156;61837;-60
2021/03/28 06:54:51;;;;;;;10.67;6.20;;;;;;;5.33;73.57;101575.94;100420;1159;82577;-60
2021/03/28 06:57:55;;;;;;;9.50;5.50;;;;;;;5.54;73.60;101577.82;100446;1152;71866;-60
2021/03/28 07:00:47;;;;;;;12.53;5.67;;;;;;;5.91;73.85;101579.13;100517;1153;83322;-61
2021/03/28 07:03:56;;;;;;;12.00;6.77;;;;;;;6.44;74.24;101577.19;100443;1153;78387;-60
2021/03/28 07:06:16;;;;;;;9.73;6.27;;;;;;;6.73;73.76;101580.01;100328;1152;62251;-57
2021/03/28 07:09:03;;;;;;;10.00;6.17;;;;;;;6.86;73.49;101572.55;100412;1152;81572;-57
2021/03/28 07:11:27;;;;;;;9.77;5.80;;;;;;;7.04;73.26;101577.13;100398;1159;71640;-58
2021/03/28 07:13:40;;;;;;;;;;;;;;;7.31;73.25;101576.45;100427;1159;83934;-63
2021/03/28 07:16:04;;;;;;;8.93;5.47;;;;;;;7.58;72.77;101568.55;100540;1152;77549;-62
2021/03/28 07:18:46;;;;;;;8.77;5.57;;;;;;;8.02;72.41;101574.34;100425;1153;61797;-62
2021/03/28 07:21:24;;;;;;;8.73;5.77;;;;;;;8.52;72.15;101573.09;100422;1152;82391;-62
2021/03/28 07:24:34;;;;;;;9.30;5.47;;;;;;;9.18;71.41;101570.20;100265;1159;71312;-56
2021/03/28 07:27:38;;;;;;;8.97;5.53;;;;;;;9.88;70.51;101575.63;100475;1153;84413;-57
2021/03/28 07:30:19;;;;;;;7.93;5.23;;;;;;;10.77;69.18;101578.92;100458;1153;77835;-58
2021/03/28 07:33:10;;;;;;;7.57;5.00;;;;;;;11.08;67.26;101577.38;100504;1152;61682;-58
2021/03/28 07:36:01;;;;;;;7.33;4.60;;;;;;;11.87;67.75;101582.28;100499;1154;82309;-58
2021/03/28 07:38:40;;;;;;;11.23;6.17;;;;;;;12.83;65.88;101585.84;100534;1152;72134;-55
2021/03/28 07:41:09;;;;;;;6.80;5.13;;;;;;;12.93;63.90;101584.64;100484;1152;83357;-61
2021/03/28 07:44:10;;;;;;;7.30;4.37;;;;;;;12.82;63.55;101586.88;100194;1153;78126;-63
2021/03/28 07:46:31;;;;;;;10.67;5.40;;;;;;;14.28;62.59;101595.81;100554;1153;61807;-63
2021/03/28 07:49:29;;;;;;;8.07;4.80;;;;;;;14.47;61.59;101592.60;100583;1152;82499;-63
2021/03/28 07:52:30;;;;;;;9.03;5.47;;;;;;;13.46;60.09;101596.59;100792;1152;71666;-63
2021/03/28 07:55:22;;;;;;;7.17;4.70;;;;;;;12.51;59.58;101610.34;100478;1153;84441;-63
2021/03/28 07:58:27;;;;;;;11.23;5.63;;;;;;;11.75;59.57;101614.27;100197;1153;78173;-63
2021/03/28 08:01:36;;;;;;;7.87;5.67;;;;;;;10.94;59.80;101618.55;100205;1155;61890;-63
2021/03/28 08:04:34;;;;;;;10.00;5.70;;;;;;;10.68;60.54;101620.45;100289;1153;82364;-64
2021/03/28 08:07:08;;;;;;;7.63;5.27;;;;;;;10.93;60.50;101616.84;100459;1153;72005;-63
2021/03/28 08:09:41;;;;;;;8.27;5.00;;;;;;;10.73;59.79;101615.41;100436;1153;83892;-63
2021/03/28 08:12:06;;;;;;;7.43;5.13;;;;;;;10.34;60.43;101620.39;100453;1153;78379;-58
2021/03/28 08:15:04;;;;;;;7.20;5.30;;;;;;;10.29;60.47;101621.88;100541;1153;61816;-58
2021/03/28 08:17:36;;;;;;;8.73;5.10;;;;;;;10.10;61.27;101622.88;100196;1154;82984;-57
2021/03/28 08:20:06;;;;;;;8.73;5.40;;;;;;;11.11;61.27;101617.61;100178;1155;71984;-58
2021/03/28 08:22:36;;;;;;;7.83;5.07;;;;;;;10.96;60.65;101621.92;100274;1154;84451;-58
2021/03/28 08:25:32;;;;;;;8.40;6.03;;;;;;;10.67;60.51;101621.45;100476;1152;77912;-58
2021/03/28 08:28:00;;;;;;;;;;;;;;;11.28;61.69;101614.97;100472;1159;61583;-61
2021/03/28 08:30:35;;;;;;;7.97;5.50;;;;;;;12.33;59.80;101622.21;100365;1159;82419;-58
2021/03/28 08:33:26;;;;;;;11.67;6.10;;;;;;;11.97;59.26;101623.60;100448;1153;71627;-58
2021/03/28 08:35:46;;;;;;;7.27;4.60;;;;;;;11.43;58.63;101624.98;100411;1153;84445;-60
2021/03/28 08:38:58;;;;;;;8.20;4.70;;;;;;;11.43;58.52;101624.13;100427;1153;76985;-61
2021/03/28 08:41:35;;;;;;;7.47;5.10;;;;;;;11.53;58.56;101624.85;100296;1154;61749;-58
2021/03/28 08:44:16;;;;;;;7.47;4.90;;;;;;;11.33;58.12;101639.66;100407;1152;82138;-59
2021/03/28 08:47:03;;;;;;;6.40;4.37;;;;;;;10.58;58.48;101636.76;100495;1152;71235;-61
2021/03/28 08:49:19;;;;;;;8.20;4.83;;;;;;;10.16;58.83;101632.23;100442;1153;84401;-62
2021/03/28 08:52:09;;;;;;;7.87;5.10;;;;;;;10.02;58.85;101641.71;101007;1152;78132;-62
2021/03/28 08:54:23;;;;;;;8.83;5.00;;;;;;;10.24;58.89;101637.70;100395;1137;61739;-62
2021/03/28 08:56:45;;;;;;;8.60;5.80;;;;;;;10.75;59.20;101647.66;100500;1159;81669;-65
2021/03/28 08:58:58;;;;;;;7.63;4.93;;;;;;;11.03;57.41;101644.63;100603;1149;71634;-62
2021/03/28 09:01:10;;;;;;;9.07;5.77;;;;;;;11.13;56.75;101639.92;100618;1152;83310;-63
2021/03/28 09:03:51;;;;;;;8.43;5.70;;;;;;;10.88;57.16;101646.22;100561;1150;77945;-63
2021/03/28 09:06:07;;;;;;;8.13;5.27;;;;;;;10.53;57.56;101654.45;100494;1152;61928;-61
2021/03/28 09:08:27;;;;;;;9.13;5.10;;;;;;;10.38;57.89;101645.24;100613;1152;81838;-59
2021/03/28 09:11:21;;;;;;;5.87;4.23;;;;;;;10.06;58.42;101649.33;100699;1152;71314;-63
2021/03/28 09:13:49;;;;;;;6.47;4.27;;;;;;;9.82;58.44;101654.51;100622;1152;83928;-59
2021/03/28 09:16:10;;;;;;;9.33;4.37;;;;;;;9.53;58.46;101653.03;100573;1152;77739;-60
2021/03/28 09:18:44;;;;;;;7.57;4.20;;;;;;;9.57;58.92;101657.95;100584;1152;61794;-58
2021/03/28 09:20:56;;;;;;;8.00;5.80;;;;;;;9.53;58.88;101653.88;100596;1152;82740;-59
2021/03/28 09:23:32;;;;;;;9.67;6.00;;;;;;;9.54;59.42;101657.40;100537;1152;71242;-64
2021/03/28 09:25:53;;;;;;;9.63;5.80;;;;;;;9.61;59.89;101651.27;100858;1152;84436;-62
2021/03/28 09:28:13;;;;;;;8.20;5.67;;;;;;;9.76;59.73;101655.12;100589;1152;78445;-63
2021/03/28 09:30:27;;;;;;;8.23;5.50;;;;;;;10.24;60.21;101654.76;100498;1152;61685;-63
2021/03/28 09:32:53;;;;;;;8.87;5.87;;;;;;;10.57;59.27;101661.25;100608;1158;82305;-62
2021/03/28 09:35:22;;;;;;;8.27;6.20;;;;;;;10.61;58.75;101659.91;100596;1152;71774;-65
2021/03/28 09:37:38;;;;;;;9.13;5.37;;;;;;;10.39;59.09;101666.68;100631;1152;83938;-63
2021/03/28 09:40:30;;;;;;;10.07;5.77;;;;;;;10.34;58.58;101660.91;100575;1152;76952;-61
2021/03/28 09:43:09;;;;;;;6.97;5.47;;;;;;;10.20;59.09;101658.77;100117;1154;61814;-63
2021/03/28 09:45:59;;;;;;;8.67;5.90;;;;;;;10.11;58.61;101661.53;100437;1152;82224;-62
2021/03/28 09:48:34;;;;;;;11.37;6.13;;;;;;;10.08;58.93;101663.52;100563;1152;71338;-63
2021/03/28 09:50:58;;;;;;;8.47;6.07;;;;;;;10.11;59.23;101664.23;100681;1150;84730;-62
2021/03/28 09:53:24;;;;;;;11.35;6.58;;;;;;;10.03;59.00;101663.14;100558;1150;78366;-63
2021/03/28 09:55:54;;;;;;;11.77;6.93;;;;;;;9.86;58.73;101660.46;100569;1152;62070;-59
2021/03/28 09:58:48;;;;;;;11.03;6.57;;;;;;;9.86;59.21;101665.86;100546;1151;81594;-58
2021/03/28 10:01:11;;;;;;;11.93;8.43;;;;;;;9.89;59.04;101669.07;100536;1159;72355;-62
2021/03/28 10:03:24;;;;;;;9.93;6.38;;;;;;;10.04;59.50;101662.14;100603;1151;84311;-63
2021/03/28 10:05:33;;;;;;;9.07;7.10;;;;;;;10.06;59.16;101661.98;100580;1151;78521;-60
2021/03/28 10:07:53;;;;;;;8.20;6.13;;;;;;;10.11;59.54;101661.53;100649;1150;61695;-59
2021/03/28 10:10:14;;;;;;;9.60;6.20;;;;;;;10.57;59.55;101669.36;100494;1159;82844;-59
2021/03/28 10:12:26;;;;;;;10.60;7.07;;;;;;;10.82;59.23;101663.11;100604;1159;71587;-59
2021/03/28 10:14:58;;;;;;;9.67;6.77;;;;;;;10.95;59.01;101657.25;100585;1151;84785;-60
2021/03/28 10:17:38;;;;;;;10.10;6.13;;;;;;;11.13;58.93;101658.86;100563;1149;77819;-61
2021/03/28 10:19:47;;;;;;;10.13;6.57;;;;;;;11.22;58.15;101666.01;100624;1149;62119;-59
2021/03/28 10:22:18;;;;;;;9.80;6.80;;;;;;;11.39;58.47;101657.95;100560;1159;82467;-61
2021/03/28 10:25:18;;;;;;;9.57;6.23;;;;;;;11.59;58.10;101653.97;100613;1149;70967;-64
2021/03/28 10:28:03;;;;;;;10.43;6.30;;;;;;;11.46;57.36;101659.83;100557;1150;85103;-63
2021/03/28 10:30:25;;;;;;;7.93;5.17;;;;;;;11.31;56.52;101656.07;100602;1150;79233;-62
2021/03/28 10:32:52;;;;;;;6.87;5.63;;;;;;;11.04;56.79;101654.41;100584;1151;61804;-62
2021/03/28 10:35:51;;;;;;;8.53;5.53;;;;;;;11.19;56.62;101651.95;100605;1151;81822;-61
2021/03/28 10:38:30;;;;;;;7.50;5.00;;;;;;;11.65;56.65;101661.39;100788;1150;71299;-62
2021/03/28 10:40:51;;;;;;;10.57;6.50;;;;;;;11.92;56.09;101660.32;100612;1151;84248;-59
2021/03/28 10:43:17;;;;;;;6.97;4.80;;;;;;;12.28;55.96;101653.55;100525;1151;78370;-62
2021/03/28 10:45:40;;;;;;;7.10;4.80;;;;;;;12.63;55.61;101655.91;100554;1151;61659;-62
2021/03/28 10:48:31;;;;;;;24.20;17.13;;;;;;;12.61;53.68;101655.21;100598;1149;82097;-62
2021/03/28 10:51:19;;;;;;;7.80;4.90;;;;;;;12.07;53.73;101664.90;100583;1149;71062;-63
2021/03/28 10:53:56;;;;;;;7.67;4.77;;;;;;;11.87;53.75;101660.80;100559;1150;84855;-63
2021/03/28 10:56:55;;;;;;;5.53;4.10;;;;;;;11.98;53.11;101662.34;100634;1149;78351;-63
2021/03/28 10:59:39;;;;;;;5.83;4.43;;;;;;;12.11;53.66;101663.56;100619;1150;61644;-60
2021/03/28 11:02:41;;;;;;;9.43;5.20;;;;;;;12.18;53.64;101659.15;100618;1151;82450;-60
2021/03/28 11:05:29;;;;;;;6.85;4.60;;;;;;;12.40;53.31;101666.60;100578;1158;71204;-63
2021/03/28 11:08:18;;;;;;;10.57;4.93;;;;;;;12.49;52.81;101656.60;100545;1150;84512;-59
2021/03/28 11:11:17;;;;;;;6.53;4.03;;;;;;;12.36;52.76;101667.94;100575;1151;78320;-61
2021/03/28 11:14:10;;;;;;;7.63;4.47;;;;;;;12.15;52.35;101669.47;100573;1151;61767;-61
2021/03/28 11:16:37;;;;;;;5.90;4.20;;;;;;;11.58;51.94;101673.91;100634;1151;81710;-60
2021/03/28 11:19:58;;;;;;;7.05;4.30;;;;;;;11.33;52.16;101672.13;100617;1151;71507;-59
2021/03/28 11:22:19;;;;;;;8.30;4.13;;;;;;;11.27;52.64;101673.63;100633;1151;84360;-64
2021/03/28 11:25:00;;;;;;;5.93;3.77;;;;;;;11.38;52.36;101672.48;100641;1151;77039;-63
2021/03/28 11:27:41;;;;;;;5.60;3.50;;;;;;;11.46;52.35;101667.09;100571;1151;62001;-62
2021/03/28 11:30:14;;;;;;;5.37;3.37;;;;;;;11.92;52.42;101660.32;100557;1151;82892;-59
2021/03/28 11:32:29;;;;;;;6.10;3.27;;;;;;;12.34;51.75;101672.69;100600;1151;71328;-61
2021/03/28 11:34:58;;;;;;;5.67;3.30;;;;;;;12.59;50.67;101672.67;100659;1150;84006;-61
2021/03/28 11:37:30;;;;;;;6.20;3.60;;;;;;;12.73;50.99;101671.97;100571;1151;77707;-60
2021/03/28 11:40:22;;;;;;;9.00;5.30;;;;;;;12.74;50.54;101668.26;100563;1151;61640;-63
2021/03/28 11:42:31;;;;;;;7.27;3.50;;;;;;;12.60;50.63;101663.53;100553;1159;82432;-62
2021/03/28 11:45:29;;;;;;;4.77;3.10;;;;;;;12.61;50.46;101667.95;100511;1159;71491;-62
2021/03/28 11:47:38;;;;;;;7.10;3.70;;;;;;;12.74;49.94;101669.11;100549;1151;84566;-60
2021/03/28 11:50:00;;;;;;;5.87;3.33;;;;;;;12.79;49.75;101665.87;100577;1149;78331;-60
2021/03/28 11:52:19;;;;;;;6.80;3.37;;;;;;;12.90;49.63;101662.79;101153;1149;61842;-62